createdAt,value
2022-08-14T00:00:54.383Z,17.68
2022-08-14T00:01:55.307Z,17.68
2022-08-14T00:02:52.518Z,17.57
2022-08-14T00:03:49.787Z,17.68
2022-08-14T00:04:50.128Z,17.74
2022-08-14T00:05:47.977Z,17.85
2022-08-14T00:06:55.003Z,17.77
2022-08-14T00:07:53.796Z,17.93
2022-08-14T00:08:53.024Z,17.87
2022-08-14T00:10:02.518Z,17.91
2022-08-14T00:11:06.466Z,17.82
2022-08-14T00:12:06.049Z,17.69
2022-08-14T00:13:23.726Z,17.77
2022-08-14T00:14:20.662Z,17.47
2022-08-14T00:15:43.341Z,17.50
2022-08-14T00:16:45.032Z,17.60
2022-08-14T00:17:47.283Z,17.64
2022-08-14T00:19:06.578Z,17.57
2022-08-14T00:20:02.137Z,17.52
2022-08-14T00:21:11.274Z,17.76
2022-08-14T00:22:08.220Z,17.87
2022-08-14T00:23:12.059Z,17.76
2022-08-14T00:24:13.897Z,17.54
2022-08-14T00:25:20.248Z,17.65
2022-08-14T00:26:23.231Z,17.62
2022-08-14T00:27:19.948Z,17.56
2022-08-14T00:28:18.333Z,17.58
2022-08-14T00:29:15.303Z,17.84
2022-08-14T00:30:14.409Z,17.69
2022-08-14T00:31:14.990Z,17.69
2022-08-14T00:32:52.938Z,17.70
2022-08-14T00:33:39.342Z,17.75
2022-08-14T00:34:48.205Z,17.69
2022-08-14T00:36:36.247Z,17.68
2022-08-14T00:37:03.822Z,17.66
2022-08-14T00:38:00.854Z,17.71
2022-08-14T00:38:57.754Z,17.45
2022-08-14T00:39:54.475Z,17.21
2022-08-14T00:40:51.402Z,17.63
2022-08-14T00:41:51.449Z,17.71
2022-08-14T00:42:55.194Z,17.71
2022-08-14T00:43:53.074Z,17.82
2022-08-14T00:44:55.547Z,17.70
2022-08-14T00:45:52.839Z,17.63
2022-08-14T00:46:49.608Z,17.64
2022-08-14T00:47:48.649Z,17.62
2022-08-14T00:48:45.265Z,17.80
2022-08-14T00:49:45.982Z,17.70
2022-08-14T00:50:45.202Z,17.72
2022-08-14T00:51:44.244Z,17.60
2022-08-14T00:52:41.531Z,17.62
2022-08-14T00:53:40.155Z,17.63
2022-08-14T00:54:40.498Z,17.58
2022-08-14T00:55:41.424Z,17.62
2022-08-14T00:56:39.669Z,17.63
2022-08-14T00:57:36.796Z,17.50
2022-08-14T00:58:36.196Z,17.46
2022-08-14T00:59:41.746Z,17.40
2022-08-14T01:00:47.532Z,17.34
2022-08-14T01:01:49.216Z,17.11
2022-08-14T01:02:46.034Z,17.10
2022-08-14T01:03:53.035Z,17.07
2022-08-14T01:04:54.263Z,17.03
2022-08-14T01:05:52.658Z,16.96
2022-08-14T01:06:55.239Z,17.08
2022-08-14T01:07:57.816Z,17.06
2022-08-14T01:08:59.206Z,16.96
2022-08-14T01:09:59.182Z,16.97
2022-08-14T01:10:57.086Z,16.98
2022-08-14T01:12:02.757Z,17.01
2022-08-14T01:13:01.437Z,16.91
2022-08-14T01:14:01.604Z,17.05
2022-08-14T01:15:16.827Z,17.19
2022-08-14T01:16:17.345Z,17.26
2022-08-14T01:17:19.369Z,17.35
2022-08-14T01:18:37.503Z,17.41
2022-08-14T01:19:53.920Z,17.38
2022-08-14T01:21:09.451Z,17.37
2022-08-14T01:22:12.266Z,17.14
2022-08-14T01:23:15.788Z,16.94
2022-08-14T01:24:15.323Z,16.90
2022-08-14T01:25:26.975Z,16.89
2022-08-14T01:26:35.834Z,16.89
2022-08-14T01:27:45.155Z,16.87
2022-08-14T01:28:57.780Z,16.88
2022-08-14T01:30:00.863Z,17.01
2022-08-14T01:31:02.023Z,16.91
2022-08-14T01:32:04.564Z,16.86
2022-08-14T01:33:07.452Z,16.74
2022-08-14T01:35:18.633Z,16.76
2022-08-14T01:36:04.361Z,16.72
2022-08-14T01:36:39.971Z,16.90
2022-08-14T01:37:38.252Z,16.95
2022-08-14T01:38:44.218Z,17.04
2022-08-14T01:39:45.750Z,17.04
2022-08-14T01:40:42.442Z,17.45
2022-08-14T01:41:39.897Z,17.45
2022-08-14T01:42:36.549Z,17.32
2022-08-14T01:43:43.636Z,17.11
2022-08-14T01:44:58.573Z,17.25
2022-08-14T01:46:06.204Z,17.44
2022-08-14T01:47:21.544Z,17.48
2022-08-14T01:48:20.799Z,17.43
2022-08-14T01:49:17.686Z,17.32
2022-08-14T01:50:17.019Z,17.23
2022-08-14T01:51:19.058Z,17.13
2022-08-14T01:52:34.712Z,17.14
2022-08-14T01:53:35.784Z,17.13
2022-08-14T01:54:37.860Z,17.14
2022-08-14T01:55:36.627Z,17.20
2022-08-14T01:56:37.107Z,17.31
2022-08-14T01:58:00.690Z,17.43
2022-08-14T01:58:57.799Z,17.42
2022-08-14T01:59:56.984Z,17.27
2022-08-14T02:00:55.692Z,17.44
2022-08-14T02:01:59.129Z,17.53
2022-08-14T02:02:57.167Z,17.31
2022-08-14T02:03:57.181Z,17.46
2022-08-14T02:04:57.054Z,17.47
2022-08-14T02:06:00.036Z,17.39
2022-08-14T02:07:17.325Z,17.54
2022-08-14T02:08:35.383Z,17.70
2022-08-14T02:09:35.391Z,17.72
2022-08-14T02:10:35.530Z,17.62
2022-08-14T02:11:42.949Z,17.60
2022-08-14T02:12:41.031Z,17.51
2022-08-14T02:13:39.414Z,17.71
2022-08-14T02:14:40.503Z,17.55
2022-08-14T02:15:59.866Z,17.68
2022-08-14T02:17:16.502Z,17.59
2022-08-14T02:18:15.296Z,17.58
2022-08-14T02:19:15.333Z,17.74
2022-08-14T02:20:14.078Z,17.63
2022-08-14T02:21:12.521Z,17.67
2022-08-14T02:22:09.247Z,17.59
2022-08-14T02:23:08.311Z,17.44
2022-08-14T02:24:06.189Z,17.39
2022-08-14T02:25:23.970Z,17.42
2022-08-14T02:26:30.810Z,17.37
2022-08-14T02:28:24.522Z,17.36
2022-08-14T02:28:57.941Z,17.32
2022-08-14T02:29:59.766Z,17.21
2022-08-14T02:31:01.122Z,17.37
2022-08-14T02:32:00.427Z,17.53
2022-08-14T02:32:57.553Z,17.66
2022-08-14T02:33:56.440Z,17.69
2022-08-14T02:34:53.080Z,17.78
2022-08-14T02:35:53.294Z,17.78
2022-08-14T02:37:03.978Z,17.84
2022-08-14T02:38:04.120Z,17.78
2022-08-14T02:39:00.851Z,17.60
2022-08-14T02:39:57.602Z,17.67
2022-08-14T02:40:54.366Z,17.68
2022-08-14T02:41:57.937Z,17.51
2022-08-14T02:42:57.592Z,17.54
2022-08-14T02:43:54.481Z,17.62
2022-08-14T02:44:57.711Z,17.69
2022-08-14T02:45:54.402Z,17.82
2022-08-14T02:46:54.676Z,17.74
2022-08-14T02:47:58.309Z,17.54
2022-08-14T02:49:02.726Z,17.32
2022-08-14T02:50:02.695Z,17.32
2022-08-14T02:51:00.902Z,17.35
2022-08-14T02:51:58.755Z,17.23
2022-08-14T02:53:03.075Z,17.15
2022-08-14T02:54:01.870Z,17.07
2022-08-14T02:55:00.914Z,17.18
2022-08-14T02:56:03.110Z,17.27
2022-08-14T02:57:13.537Z,17.32
2022-08-14T02:58:29.157Z,16.89
2022-08-14T02:59:29.653Z,16.95
2022-08-14T03:00:33.128Z,16.98
2022-08-14T03:01:31.181Z,17.01
2022-08-14T03:02:56.183Z,17.09
2022-08-14T03:03:56.289Z,17.06
2022-08-14T03:04:55.754Z,17.03
2022-08-14T03:05:54.324Z,17.16
2022-08-14T03:06:57.417Z,17.37
2022-08-14T03:08:04.108Z,17.17
2022-08-14T03:09:01.340Z,17.13
2022-08-14T03:10:27.433Z,17.28
2022-08-14T03:11:14.872Z,17.10
2022-08-14T03:12:12.626Z,17.03
2022-08-14T03:13:20.857Z,17.40
2022-08-14T03:14:19.155Z,17.50
2022-08-14T03:15:16.325Z,17.66
2022-08-14T03:16:20.017Z,17.69
2022-08-14T03:17:24.255Z,17.59
2022-08-14T03:18:31.866Z,17.53
2022-08-14T03:19:29.382Z,17.72
2022-08-14T03:20:29.251Z,17.77
2022-08-14T03:21:26.375Z,17.78
2022-08-14T03:22:23.393Z,17.78
2022-08-14T03:23:24.990Z,17.66
2022-08-14T03:24:23.800Z,17.52
2022-08-14T03:25:22.497Z,17.69
2022-08-14T03:26:30.535Z,17.57
2022-08-14T03:27:35.451Z,17.52
2022-08-14T03:28:51.208Z,17.17
2022-08-14T03:29:48.597Z,17.32
2022-08-14T03:30:46.327Z,17.20
2022-08-14T03:31:43.633Z,17.06
2022-08-14T03:32:44.682Z,17.02
2022-08-14T03:33:43.168Z,17.15
2022-08-14T03:34:52.783Z,17.23
2022-08-14T03:36:00.085Z,17.21
2022-08-14T03:37:51.116Z,17.33
2022-08-14T03:39:11.719Z,17.52
2022-08-14T03:39:38.235Z,17.53
2022-08-14T03:40:41.408Z,17.55
2022-08-14T03:41:38.767Z,17.60
2022-08-14T03:42:36.061Z,17.66
2022-08-14T03:43:33.506Z,18.05
2022-08-14T03:45:19.825Z,18.02
2022-08-14T03:45:49.071Z,18.01
2022-08-14T03:46:54.428Z,17.93
2022-08-14T03:47:58.939Z,17.75
2022-08-14T03:49:01.265Z,17.66
2022-08-14T03:49:59.799Z,17.74
2022-08-14T03:50:56.515Z,17.86
2022-08-14T03:51:53.134Z,17.94
2022-08-14T03:52:55.916Z,17.94
2022-08-14T03:53:58.036Z,18.06
2022-08-14T03:54:54.658Z,18.00
2022-08-14T03:55:51.292Z,17.82
2022-08-14T03:56:50.304Z,18.19
2022-08-14T03:57:47.918Z,18.26
2022-08-14T03:58:49.268Z,18.40
2022-08-14T03:59:46.122Z,18.54
2022-08-14T04:00:44.913Z,18.56
2022-08-14T04:01:45.672Z,18.52
2022-08-14T04:02:53.449Z,18.45
2022-08-14T04:03:54.801Z,18.49
2022-08-14T04:04:53.441Z,18.40
2022-08-14T04:05:50.564Z,18.48
2022-08-14T04:06:48.907Z,18.49
2022-08-14T04:07:50.021Z,18.46
2022-08-14T04:09:07.641Z,18.23
2022-08-14T04:10:07.282Z,18.22
2022-08-14T04:11:08.052Z,18.27
2022-08-14T04:12:08.439Z,18.17
2022-08-14T04:13:10.232Z,18.13
2022-08-14T04:14:07.168Z,18.02
2022-08-14T04:15:05.962Z,18.01
2022-08-14T04:16:13.974Z,17.99
2022-08-14T04:17:11.330Z,18.19
2022-08-14T04:18:09.360Z,18.22
2022-08-14T04:19:10.153Z,18.31
2022-08-14T04:20:08.140Z,18.42
2022-08-14T04:21:06.771Z,18.46
2022-08-14T04:22:04.458Z,18.45
2022-08-14T04:23:01.741Z,18.53
2022-08-14T04:24:01.929Z,18.62
2022-08-14T04:25:02.198Z,18.52
2022-08-14T04:26:04.579Z,18.58
2022-08-14T04:27:05.344Z,18.58
2022-08-14T04:28:05.911Z,18.67
2022-08-14T04:29:14.118Z,18.66
2022-08-14T04:30:12.593Z,18.55
2022-08-14T04:33:02.434Z,18.71
2022-08-14T04:33:02.796Z,18.69
2022-08-14T04:34:01.583Z,18.49
2022-08-14T04:34:58.198Z,18.60
2022-08-14T04:35:57.163Z,18.57
2022-08-14T04:37:12.590Z,18.77
2022-08-14T04:38:36.975Z,18.84
2022-08-14T04:39:57.291Z,18.89
2022-08-14T04:41:13.590Z,18.75
2022-08-14T04:42:28.746Z,18.60
2022-08-14T04:43:39.516Z,18.55
2022-08-14T04:44:37.331Z,18.58
2022-08-14T04:45:36.410Z,18.72
2022-08-14T04:46:55.592Z,18.74
2022-08-14T04:48:12.638Z,18.54
2022-08-14T04:49:09.476Z,18.55
2022-08-14T04:50:11.854Z,18.68
2022-08-14T04:51:11.608Z,18.62
2022-08-14T04:52:15.470Z,18.27
2022-08-14T04:53:23.073Z,18.73
2022-08-14T04:54:27.018Z,18.77
2022-08-14T04:55:24.184Z,18.81
2022-08-14T04:56:31.186Z,18.61
2022-08-14T04:57:31.485Z,18.57
2022-08-14T04:58:32.220Z,18.67
2022-08-14T04:59:29.115Z,18.72
2022-08-14T05:00:27.412Z,18.71
2022-08-14T05:01:25.911Z,18.66
2022-08-14T05:02:25.562Z,18.73
2022-08-14T05:03:34.306Z,18.42
2022-08-14T05:04:34.416Z,18.46
2022-08-14T05:05:37.295Z,18.45
2022-08-14T05:06:38.482Z,18.37
2022-08-14T05:07:54.301Z,18.23
2022-08-14T05:08:59.542Z,18.46
2022-08-14T05:09:57.104Z,18.52
2022-08-14T05:10:56.686Z,18.54
2022-08-14T05:11:53.834Z,18.39
2022-08-14T05:13:14.349Z,18.62
2022-08-14T05:14:17.009Z,18.66
2022-08-14T05:15:29.514Z,18.59
2022-08-14T05:16:31.613Z,18.60
2022-08-14T05:17:32.025Z,18.47
2022-08-14T05:19:19.124Z,18.66
2022-08-14T05:21:04.524Z,18.57
2022-08-14T05:22:00.464Z,18.58
2022-08-14T05:22:31.744Z,18.54
2022-08-14T05:23:31.819Z,18.63
2022-08-14T05:24:29.161Z,18.46
2022-08-14T05:25:26.030Z,18.39
2022-08-14T05:26:29.173Z,18.31
2022-08-14T05:27:25.775Z,18.28
2022-08-14T05:28:31.608Z,18.42
2022-08-14T05:29:29.555Z,18.39
2022-08-14T05:30:27.189Z,18.47
2022-08-14T05:31:24.218Z,18.47
2022-08-14T05:32:36.163Z,18.68
2022-08-14T05:33:35.746Z,18.65
2022-08-14T05:34:32.447Z,18.63
2022-08-14T05:35:30.014Z,18.66
2022-08-14T05:36:30.181Z,18.69
2022-08-14T05:37:29.982Z,18.64
2022-08-14T05:38:35.219Z,18.70
2022-08-14T05:39:32.199Z,18.46
2022-08-14T05:40:28.919Z,18.50
2022-08-14T05:41:27.677Z,18.45
2022-08-14T05:42:42.325Z,18.45
2022-08-14T05:43:49.905Z,18.58
2022-08-14T05:44:47.935Z,18.53
2022-08-14T05:45:46.244Z,18.36
2022-08-14T05:46:42.979Z,18.54
2022-08-14T05:47:41.094Z,18.52
2022-08-14T05:48:43.390Z,18.37
2022-08-14T05:49:40.228Z,18.23
2022-08-14T05:50:38.331Z,18.31
2022-08-14T05:51:38.794Z,18.46
2022-08-14T05:52:39.161Z,18.47
2022-08-14T05:53:36.352Z,18.29
2022-08-14T05:54:38.696Z,18.33
2022-08-14T05:55:35.576Z,18.59
2022-08-14T05:56:39.464Z,18.78
2022-08-14T05:57:46.863Z,18.87
2022-08-14T05:58:45.604Z,19.01
2022-08-14T05:59:42.455Z,19.06
2022-08-14T06:00:42.824Z,19.19
2022-08-14T06:01:40.054Z,19.18
2022-08-14T06:02:36.903Z,19.31
2022-08-14T06:03:33.673Z,19.46
2022-08-14T06:04:30.764Z,19.33
2022-08-14T06:05:29.105Z,19.35
2022-08-14T06:06:26.185Z,19.47
2022-08-14T06:07:22.812Z,19.50
2022-08-14T06:08:35.604Z,19.39
2022-08-14T06:09:36.019Z,19.27
2022-08-14T06:10:37.356Z,19.57
2022-08-14T06:11:34.760Z,19.71
2022-08-14T06:12:55.494Z,19.81
2022-08-14T06:13:50.106Z,19.72
2022-08-14T06:14:48.834Z,19.67
2022-08-14T06:15:46.976Z,19.76
2022-08-14T06:16:45.234Z,19.80
2022-08-14T06:17:58.524Z,19.85
2022-08-14T06:18:56.407Z,19.98
2022-08-14T06:19:56.363Z,19.88
2022-08-14T06:20:54.425Z,19.81
2022-08-14T06:21:58.370Z,19.91
2022-08-14T06:22:56.897Z,20.00
2022-08-14T06:23:53.608Z,19.89
2022-08-14T06:24:50.404Z,19.74
2022-08-14T06:25:52.624Z,19.66
2022-08-14T06:26:51.973Z,19.56
2022-08-14T06:27:54.055Z,19.59
2022-08-14T06:28:52.414Z,19.81
2022-08-14T06:29:50.047Z,19.99
2022-08-14T06:30:49.653Z,19.98
2022-08-14T06:31:47.742Z,19.96
2022-08-14T06:32:52.884Z,20.00
2022-08-14T06:35:09.582Z,20.00
2022-08-14T06:35:13.123Z,19.89
2022-08-14T06:36:10.142Z,19.78
2022-08-14T06:37:08.159Z,19.75
2022-08-14T06:38:05.944Z,19.65
2022-08-14T06:39:03.655Z,19.75
2022-08-14T06:40:05.206Z,19.61
2022-08-14T06:41:13.387Z,19.73
2022-08-14T06:42:32.305Z,19.65
2022-08-14T06:43:30.339Z,19.66
2022-08-14T06:44:30.785Z,19.68
2022-08-14T06:45:30.283Z,19.53
2022-08-14T06:46:32.467Z,19.53
2022-08-14T06:47:34.671Z,19.58
2022-08-14T06:48:32.721Z,19.47
2022-08-14T06:49:42.807Z,19.39
2022-08-14T06:50:45.906Z,19.62
2022-08-14T06:51:46.856Z,19.52
2022-08-14T06:52:50.387Z,19.60
2022-08-14T06:53:48.963Z,19.64
2022-08-14T06:54:45.848Z,19.63
2022-08-14T06:55:58.359Z,19.59
2022-08-14T06:56:58.976Z,19.62
2022-08-14T06:57:57.772Z,19.63
2022-08-14T06:58:54.773Z,19.62
2022-08-14T06:59:52.514Z,19.46
2022-08-14T07:01:08.119Z,19.53
2022-08-14T07:02:23.403Z,19.58
2022-08-14T07:03:44.559Z,19.39
2022-08-14T07:05:00.784Z,19.18
2022-08-14T07:06:02.308Z,19.10
2022-08-14T07:07:08.445Z,19.13
2022-08-14T07:08:05.985Z,19.24
2022-08-14T07:09:05.090Z,19.31
2022-08-14T07:10:03.001Z,19.09
2022-08-14T07:11:01.428Z,19.15
2022-08-14T07:11:58.294Z,19.17
2022-08-14T07:13:03.606Z,19.17
2022-08-14T07:14:01.203Z,19.33
2022-08-14T07:15:01.431Z,19.06
2022-08-14T07:16:00.506Z,18.37
2022-08-14T07:17:02.061Z,18.38
2022-08-14T07:18:01.165Z,18.31
2022-08-14T07:18:58.104Z,18.90
2022-08-14T07:19:55.490Z,19.01
2022-08-14T07:20:54.468Z,19.09
2022-08-14T07:21:51.165Z,18.82
2022-08-14T07:22:56.424Z,18.95
2022-08-14T07:23:53.630Z,19.02
2022-08-14T07:24:50.297Z,19.04
2022-08-14T07:25:47.873Z,18.97
2022-08-14T07:26:44.517Z,19.04
2022-08-14T07:27:42.840Z,19.23
2022-08-14T07:28:43.228Z,19.29
2022-08-14T07:29:40.434Z,19.20
2022-08-14T07:30:37.162Z,19.29
2022-08-14T07:31:38.844Z,19.35
2022-08-14T07:32:35.562Z,19.43
2022-08-14T07:33:41.855Z,19.16
2022-08-14T07:34:41.106Z,19.23
2022-08-14T07:35:57.313Z,19.45
2022-08-14T07:37:00.798Z,19.53
2022-08-14T07:37:57.741Z,19.47
2022-08-14T07:38:55.972Z,19.20
2022-08-14T07:39:52.828Z,19.22
2022-08-14T07:40:52.914Z,19.08
2022-08-14T07:41:49.919Z,19.35
2022-08-14T07:42:46.519Z,19.03
2022-08-14T07:43:55.483Z,18.93
2022-08-14T07:44:52.831Z,18.92
2022-08-14T07:45:53.878Z,19.25
2022-08-14T07:46:50.917Z,19.47
2022-08-14T07:47:47.620Z,19.76
2022-08-14T07:48:44.800Z,19.77
2022-08-14T07:50:04.923Z,19.95
2022-08-14T07:51:03.809Z,20.14
2022-08-14T07:52:08.230Z,20.05
2022-08-14T07:53:06.968Z,20.31
2022-08-14T07:54:10.892Z,20.04
2022-08-14T07:55:09.715Z,20.18
2022-08-14T07:56:21.982Z,20.21
2022-08-14T07:57:25.151Z,20.10
2022-08-14T07:58:34.123Z,20.10
2022-08-14T07:59:41.056Z,20.11
2022-08-14T08:00:38.884Z,20.14
2022-08-14T08:01:35.743Z,19.95
2022-08-14T08:02:32.743Z,19.85
2022-08-14T08:03:35.095Z,19.91
2022-08-14T08:04:34.039Z,19.99
2022-08-14T08:05:31.437Z,20.06
2022-08-14T08:06:28.599Z,20.19
2022-08-14T08:07:30.055Z,20.21
2022-08-14T08:08:31.419Z,20.25
2022-08-14T08:09:32.391Z,20.27
2022-08-14T08:11:01.407Z,20.29
2022-08-14T08:11:54.444Z,20.41
2022-08-14T08:12:56.949Z,20.50
2022-08-14T08:13:55.608Z,20.60
2022-08-14T08:14:56.015Z,20.22
2022-08-14T08:15:59.045Z,20.26
2022-08-14T08:16:57.261Z,20.51
2022-08-14T08:18:03.863Z,20.44
2022-08-14T08:19:10.056Z,20.55
2022-08-14T08:20:15.966Z,20.72
2022-08-14T08:21:13.559Z,20.70
2022-08-14T08:22:15.180Z,20.79
2022-08-14T08:23:20.634Z,20.80
2022-08-14T08:24:18.436Z,20.63
2022-08-14T08:25:18.118Z,20.68
2022-08-14T08:26:15.564Z,20.75
2022-08-14T08:27:21.943Z,20.73
2022-08-14T08:28:25.293Z,20.79
2022-08-14T08:29:29.299Z,20.47
2022-08-14T08:30:28.092Z,20.41
2022-08-14T08:31:33.051Z,20.23
2022-08-14T08:32:42.056Z,20.83
2022-08-14T08:33:40.259Z,20.96
2022-08-14T08:34:47.218Z,21.20
2022-08-14T08:35:47.211Z,21.17
2022-08-14T08:36:47.118Z,21.10
2022-08-14T08:37:44.424Z,21.28
2022-08-14T08:39:18.665Z,21.47
2022-08-14T08:40:02.016Z,21.39
2022-08-14T08:41:01.234Z,21.08
2022-08-14T08:41:58.335Z,20.97
2022-08-14T08:42:55.318Z,21.16
2022-08-14T08:44:05.548Z,21.14
2022-08-14T08:45:02.450Z,20.91
2022-08-14T08:46:26.194Z,21.13
2022-08-14T08:47:22.819Z,21.11
2022-08-14T08:48:20.826Z,21.06
2022-08-14T08:49:59.644Z,21.01
2022-08-14T08:51:02.796Z,21.17
2022-08-14T08:52:04.329Z,21.03
2022-08-14T08:53:05.535Z,21.01
2022-08-14T08:54:03.990Z,20.92
2022-08-14T08:55:04.269Z,20.90
2022-08-14T08:56:02.209Z,20.93
2022-08-14T08:56:59.890Z,21.14
2022-08-14T08:58:03.986Z,21.09
2022-08-14T08:59:02.550Z,21.03
2022-08-14T09:00:02.468Z,21.17
2022-08-14T09:01:07.186Z,21.10
2022-08-14T09:02:10.431Z,21.23
2022-08-14T09:03:10.714Z,21.19
2022-08-14T09:04:07.596Z,21.32
2022-08-14T09:05:11.576Z,21.09
2022-08-14T09:06:53.843Z,20.99
2022-08-14T09:07:28.020Z,21.11
2022-08-14T09:08:33.046Z,21.42
2022-08-14T09:09:33.892Z,21.20
2022-08-14T09:10:30.692Z,21.26
2022-08-14T09:11:27.350Z,21.46
2022-08-14T09:12:24.537Z,21.48
2022-08-14T09:13:26.942Z,21.23
2022-08-14T09:14:29.695Z,21.41
2022-08-14T09:15:42.412Z,21.20
2022-08-14T09:16:41.556Z,21.03
2022-08-14T09:17:43.760Z,21.01
2022-08-14T09:18:41.219Z,20.77
2022-08-14T09:19:39.279Z,20.87
2022-08-14T09:20:43.837Z,21.06
2022-08-14T09:21:42.497Z,21.28
2022-08-14T09:22:42.630Z,21.39
2022-08-14T09:24:26.886Z,21.32
2022-08-14T09:25:03.023Z,21.52
2022-08-14T09:26:01.715Z,21.79
2022-08-14T09:26:59.375Z,22.22
2022-08-14T09:27:57.314Z,22.39
2022-08-14T09:28:53.988Z,22.48
2022-08-14T09:29:54.116Z,22.01
2022-08-14T09:30:54.516Z,22.19
2022-08-14T09:31:57.673Z,21.78
2022-08-14T09:33:09.090Z,21.78
2022-08-14T09:34:27.288Z,21.67
2022-08-14T09:35:36.905Z,21.57
2022-08-14T09:37:01.319Z,21.78
2022-08-14T09:37:57.893Z,22.48
2022-08-14T09:39:23.472Z,22.50
2022-08-14T09:40:37.138Z,21.99
2022-08-14T09:42:20.281Z,22.37
2022-08-14T09:43:38.727Z,22.69
2022-08-14T09:44:54.517Z,22.43
2022-08-14T09:45:53.916Z,22.70
2022-08-14T09:46:55.431Z,22.26
2022-08-14T09:47:56.944Z,21.68
2022-08-14T09:49:05.637Z,21.62
2022-08-14T09:50:02.302Z,21.23
2022-08-14T09:52:06.836Z,21.32
2022-08-14T09:54:17.709Z,21.58
2022-08-14T09:54:58.505Z,22.34
2022-08-14T09:55:59.731Z,22.13
2022-08-14T09:56:57.432Z,21.94
2022-08-14T09:58:19.879Z,21.35
2022-08-14T09:59:24.427Z,21.78
2022-08-14T10:01:02.008Z,22.22
2022-08-14T10:02:03.364Z,22.44
2022-08-14T10:03:05.270Z,22.27
2022-08-14T10:04:34.769Z,22.36
2022-08-14T10:05:39.127Z,22.06
2022-08-14T10:06:45.166Z,21.52
2022-08-14T10:07:53.906Z,21.83
2022-08-14T10:09:04.587Z,22.27
2022-08-14T10:10:02.481Z,21.88
2022-08-14T10:11:02.999Z,21.91
2022-08-14T10:12:00.104Z,21.40
2022-08-14T10:12:58.362Z,21.67
2022-08-14T10:13:58.700Z,22.14
2022-08-14T10:14:55.766Z,22.65
2022-08-14T10:15:59.798Z,23.15
2022-08-14T10:16:58.511Z,23.16
2022-08-14T10:18:09.639Z,23.98
2022-08-14T10:19:19.244Z,23.33
2022-08-14T10:20:39.323Z,23.45
2022-08-14T10:21:58.867Z,24.13
2022-08-14T10:23:22.174Z,23.61
2022-08-14T10:24:24.481Z,22.88
2022-08-14T10:25:41.175Z,22.32
2022-08-14T10:26:40.216Z,22.92
2022-08-14T10:27:38.172Z,23.21
2022-08-14T10:29:18.638Z,22.44
2022-08-14T10:30:01.128Z,23.03
2022-08-14T10:30:57.867Z,22.71
2022-08-14T10:32:00.838Z,22.86
2022-08-14T10:32:57.714Z,23.01
2022-08-14T10:34:13.185Z,23.43
2022-08-14T10:35:14.267Z,23.41
2022-08-14T10:36:26.735Z,22.57
2022-08-14T10:37:40.056Z,23.28
2022-08-14T10:38:37.290Z,23.43
2022-08-14T10:39:38.688Z,22.03
2022-08-14T10:40:52.059Z,22.16
2022-08-14T10:42:16.719Z,23.60
2022-08-14T10:43:26.215Z,23.99
2022-08-14T10:44:29.880Z,24.06
2022-08-14T10:45:35.866Z,24.08
2022-08-14T10:47:39.119Z,24.24
2022-08-14T10:48:37.191Z,23.06
2022-08-14T10:49:48.591Z,23.87
2022-08-14T10:50:49.353Z,23.91
2022-08-14T10:52:04.127Z,23.69
2022-08-14T10:53:05.935Z,24.18
2022-08-14T10:54:16.336Z,24.37
2022-08-14T10:55:16.177Z,24.40
2022-08-14T10:56:21.410Z,24.61
2022-08-14T10:57:28.801Z,24.66
2022-08-14T10:58:32.947Z,24.95
2022-08-14T10:59:43.359Z,24.99
2022-08-14T11:00:47.265Z,24.99
2022-08-14T11:01:44.927Z,24.75
2022-08-14T11:02:54.110Z,23.30
2022-08-14T11:03:55.902Z,24.39
2022-08-14T11:05:04.705Z,25.12
2022-08-14T11:06:14.582Z,25.42
2022-08-14T11:07:19.263Z,25.59
2022-08-14T11:08:29.921Z,25.59
2022-08-14T11:09:31.629Z,25.77
2022-08-14T11:10:52.772Z,25.61
2022-08-14T11:12:36.027Z,25.85
2022-08-14T11:13:24.487Z,25.77
2022-08-14T11:14:22.880Z,25.87
2022-08-14T11:15:25.639Z,25.76
2022-08-14T11:16:23.083Z,25.87
2022-08-14T11:17:25.803Z,25.50
2022-08-14T11:18:30.542Z,25.88
2022-08-14T11:19:33.991Z,26.50
2022-08-14T11:20:32.093Z,26.63
2022-08-14T11:21:34.245Z,25.99
2022-08-14T11:22:56.625Z,26.02
2022-08-14T11:23:53.540Z,25.77
2022-08-14T11:24:56.630Z,26.54
2022-08-14T11:25:54.791Z,26.84
2022-08-14T11:26:51.967Z,26.37
2022-08-14T11:27:50.664Z,26.38
2022-08-14T11:28:50.032Z,25.79
2022-08-14T11:29:52.559Z,25.47
2022-08-14T11:30:58.589Z,26.12
2022-08-14T11:32:00.402Z,25.75
2022-08-14T11:32:58.560Z,26.16
2022-08-14T11:33:57.886Z,26.28
2022-08-14T11:34:55.571Z,25.45
2022-08-14T11:35:52.273Z,25.18
2022-08-14T11:37:02.934Z,25.50
2022-08-14T11:38:07.875Z,25.63
2022-08-14T11:39:09.805Z,25.07
2022-08-14T11:40:16.287Z,25.46
2022-08-14T11:41:17.188Z,25.66
2022-08-14T11:42:56.795Z,25.25
2022-08-14T11:43:57.807Z,25.52
2022-08-14T11:45:00.896Z,25.78
2022-08-14T11:45:58.375Z,25.60
2022-08-14T11:47:05.863Z,24.90
2022-08-14T11:49:04.265Z,25.04
2022-08-14T11:49:42.623Z,24.89
2022-08-14T11:50:39.460Z,24.98
2022-08-14T11:51:53.404Z,24.93
2022-08-14T11:52:53.843Z,25.18
2022-08-14T11:54:06.344Z,25.25
2022-08-14T11:55:09.221Z,25.56
2022-08-14T11:56:06.423Z,25.70
2022-08-14T11:57:05.228Z,25.59
2022-08-14T11:58:05.752Z,25.59
2022-08-14T11:59:03.939Z,25.54
2022-08-14T12:00:03.065Z,25.80
2022-08-14T12:01:04.155Z,25.57
2022-08-14T12:02:38.997Z,25.86
2022-08-14T12:03:46.514Z,25.72
2022-08-14T12:04:50.921Z,26.05
2022-08-14T12:05:48.340Z,25.65
2022-08-14T12:06:52.508Z,25.33
2022-08-14T12:07:50.681Z,25.18
2022-08-14T12:08:50.999Z,25.28
2022-08-14T12:09:56.243Z,25.49
2022-08-14T12:10:58.685Z,25.65
2022-08-14T12:11:56.150Z,26.05
2022-08-14T12:12:56.473Z,25.98
2022-08-14T12:13:56.121Z,26.03
2022-08-14T12:14:56.452Z,25.48
2022-08-14T12:16:06.383Z,25.67
2022-08-14T12:17:12.676Z,25.76
2022-08-14T12:18:11.199Z,25.83
2022-08-14T12:19:16.190Z,25.91
2022-08-14T12:20:14.935Z,25.94
2022-08-14T12:21:19.343Z,26.30
2022-08-14T12:22:25.837Z,26.32
2022-08-14T12:23:27.619Z,26.81
2022-08-14T12:24:36.025Z,26.81
2022-08-14T12:25:35.178Z,27.05
2022-08-14T12:26:40.646Z,27.03
2022-08-14T12:27:52.848Z,27.03
2022-08-14T12:29:00.062Z,27.18
2022-08-14T12:29:57.558Z,27.44
2022-08-14T12:30:56.669Z,27.21
2022-08-14T12:32:03.893Z,26.90
2022-08-14T12:33:03.587Z,27.31
2022-08-14T12:34:02.895Z,26.52
2022-08-14T12:35:07.531Z,26.52
2022-08-14T12:36:10.553Z,26.63
2022-08-14T12:37:08.984Z,27.01
2022-08-14T12:38:05.759Z,27.17
2022-08-14T12:39:06.056Z,27.47
2022-08-14T12:40:15.655Z,28.28
2022-08-14T12:41:24.110Z,28.59
2022-08-14T12:42:37.942Z,28.24
2022-08-14T12:43:48.396Z,27.52
2022-08-14T12:44:48.487Z,27.50
2022-08-14T12:45:55.573Z,27.76
2022-08-14T12:47:06.247Z,28.53
2022-08-14T12:48:21.202Z,29.29
2022-08-14T12:49:25.954Z,28.97
2022-08-14T12:50:23.024Z,29.04
2022-08-14T12:51:27.294Z,28.07
2022-08-14T12:52:41.541Z,27.90
2022-08-14T12:53:50.698Z,28.23
2022-08-14T12:55:06.499Z,28.31
2022-08-14T12:56:21.983Z,28.19
2022-08-14T12:57:23.585Z,28.37
2022-08-14T12:58:35.546Z,28.50
2022-08-14T12:59:42.812Z,28.13
2022-08-14T13:01:16.067Z,27.69
2022-08-14T13:02:11.220Z,27.34
2022-08-14T13:03:10.408Z,26.68
2022-08-14T13:04:10.102Z,26.85
2022-08-14T13:05:09.776Z,26.25
2022-08-14T13:06:06.704Z,26.62
2022-08-14T13:07:07.382Z,26.89
2022-08-14T13:08:06.387Z,26.69
2022-08-14T13:09:28.036Z,25.98
2022-08-14T13:10:35.126Z,26.33
2022-08-14T13:11:47.126Z,26.66
2022-08-14T13:13:15.475Z,26.24
2022-08-14T13:14:17.198Z,26.23
2022-08-14T13:15:15.952Z,26.51
2022-08-14T13:16:20.769Z,26.82
2022-08-14T13:17:39.486Z,26.43
2022-08-14T13:18:39.876Z,26.72
2022-08-14T13:19:40.656Z,26.52
2022-08-14T13:20:37.818Z,26.78
2022-08-14T13:21:58.828Z,26.42
2022-08-14T13:22:56.111Z,26.27
2022-08-14T13:23:54.813Z,26.49
2022-08-14T13:24:51.582Z,26.06
2022-08-14T13:25:56.274Z,26.02
2022-08-14T13:27:00.504Z,26.38
2022-08-14T13:27:59.215Z,26.23
2022-08-14T13:29:02.481Z,26.27
2022-08-14T13:30:03.294Z,26.52
2022-08-14T13:31:11.879Z,26.11
2022-08-14T13:32:11.822Z,25.29
2022-08-14T13:33:14.955Z,25.45
2022-08-14T13:34:14.358Z,25.90
2022-08-14T13:35:16.334Z,26.20
2022-08-14T13:36:24.677Z,26.02
2022-08-14T13:37:31.867Z,26.13
2022-08-14T13:38:29.267Z,25.92
2022-08-14T13:39:30.002Z,26.45
2022-08-14T13:40:30.400Z,26.48